sensor_id;sensor_type;location;lat;lon;timestamp;temperature;humidity
26051;DHT22;13825;53.496;10.020;2023-10-08T00:02:23;10.90;99.90
26051;DHT22;13825;53.496;10.020;2023-10-08T00:04:53;10.90;99.90
26051;DHT22;13825;53.496;10.020;2023-10-08T00:07:21;10.90;99.90
26051;DHT22;13825;53.496;10.020;2023-10-08T00:09:50;10.90;99.90
26051;DHT22;13825;53.496;10.020;2023-10-08T00:12:26;10.90;99.90
26051;DHT22;13825;53.496;10.020;2023-10-08T00:14:55;10.90;99.90
26051;DHT22;13825;53.496;10.020;2023-10-08T00:17:25;10.90;99.90
26051;DHT22;13825;53.496;10.020;2023-10-08T00:19:53;10.90;99.90
26051;DHT22;13825;53.496;10.020;2023-10-08T00:22:20;10.90;99.90
26051;DHT22;13825;53.496;10.020;2023-10-08T00:24:50;10.90;99.90
26051;DHT22;13825;53.496;10.020;2023-10-08T00:27:23;10.90;99.90
26051;DHT22;13825;53.496;10.020;2023-10-08T00:29:51;11.00;99.90
26051;DHT22;13825;53.496;10.020;2023-10-08T00:32:19;11.10;99.90
26051;DHT22;13825;53.496;10.020;2023-10-08T00:34:47;10.90;99.90
26051;DHT22;13825;53.496;10.020;2023-10-08T00:37:16;10.90;99.90
26051;DHT22;13825;53.496;10.020;2023-10-08T00:39:43;11.00;99.90
26051;DHT22;13825;53.496;10.020;2023-10-08T00:42:11;10.90;99.90
26051;DHT22;13825;53.496;10.020;2023-10-08T00:44:39;10.90;99.90
26051;DHT22;13825;53.496;10.020;2023-10-08T00:47:14;11.00;99.90
26051;DHT22;13825;53.496;10.020;2023-10-08T00:49:42;11.00;99.90
26051;DHT22;13825;53.496;10.020;2023-10-08T00:52:24;10.90;99.90
26051;DHT22;13825;53.496;10.020;2023-10-08T00:55:04;11.00;99.90
26051;DHT22;13825;53.496;10.020;2023-10-08T00:57:37;11.00;99.90
26051;DHT22;13825;53.496;10.020;2023-10-08T01:00:09;11.00;99.90
26051;DHT22;13825;53.496;10.020;2023-10-08T01:02:43;11.00;99.90
26051;DHT22;13825;53.496;10.020;2023-10-08T01:05:13;11.00;99.90
26051;DHT22;13825;53.496;10.020;2023-10-08T01:07:46;11.00;99.90
26051;DHT22;13825;53.496;10.020;2023-10-08T01:10:17;11.00;99.90
26051;DHT22;13825;53.496;10.020;2023-10-08T01:12:46;11.00;99.90
26051;DHT22;13825;53.496;10.020;2023-10-08T01:15:29;10.90;99.90
26051;DHT22;13825;53.496;10.020;2023-10-08T01:18:01;11.00;99.90
26051;DHT22;13825;53.496;10.020;2023-10-08T01:20:30;11.00;99.90
26051;DHT22;13825;53.496;10.020;2023-10-08T01:23:04;11.00;99.90
26051;DHT22;13825;53.496;10.020;2023-10-08T01:25:36;10.90;99.90
26051;DHT22;13825;53.496;10.020;2023-10-08T01:28:04;10.90;99.90
26051;DHT22;13825;53.496;10.020;2023-10-08T01:30:35;10.90;99.90
26051;DHT22;13825;53.496;10.020;2023-10-08T01:33:08;10.80;99.90
26051;DHT22;13825;53.496;10.020;2023-10-08T01:35:39;10.90;99.90
26051;DHT22;13825;53.496;10.020;2023-10-08T01:38:08;11.10;99.90
26051;DHT22;13825;53.496;10.020;2023-10-08T01:40:40;10.90;99.90
26051;DHT22;13825;53.496;10.020;2023-10-08T01:43:07;10.90;99.90
26051;DHT22;13825;53.496;10.020;2023-10-08T01:45:36;10.90;99.90
26051;DHT22;13825;53.496;10.020;2023-10-08T01:48:07;11.10;99.90
26051;DHT22;13825;53.496;10.020;2023-10-08T01:50:36;11.00;99.90
26051;DHT22;13825;53.496;10.020;2023-10-08T01:53:04;11.10;99.90
26051;DHT22;13825;53.496;10.020;2023-10-08T01:55:36;11.00;99.90
26051;DHT22;13825;53.496;10.020;2023-10-08T01:58:15;11.00;99.90
26051;DHT22;13825;53.496;10.020;2023-10-08T02:00:44;11.00;99.90
26051;DHT22;13825;53.496;10.020;2023-10-08T02:03:12;10.90;99.90
26051;DHT22;13825;53.496;10.020;2023-10-08T02:05:41;11.00;99.90
26051;DHT22;13825;53.496;10.020;2023-10-08T02:08:09;10.90;99.90
26051;DHT22;13825;53.496;10.020;2023-10-08T02:10:39;10.90;99.90
26051;DHT22;13825;53.496;10.020;2023-10-08T02:13:07;10.80;99.90
26051;DHT22;13825;53.496;10.020;2023-10-08T02:15:35;10.90;99.90
26051;DHT22;13825;53.496;10.020;2023-10-08T02:18:06;10.90;99.90
26051;DHT22;13825;53.496;10.020;2023-10-08T02:20:34;10.90;99.90
26051;DHT22;13825;53.496;10.020;2023-10-08T02:23:01;10.90;99.90
26051;DHT22;13825;53.496;10.020;2023-10-08T02:25:31;10.90;99.90
26051;DHT22;13825;53.496;10.020;2023-10-08T02:28:03;10.80;99.90
26051;DHT22;13825;53.496;10.020;2023-10-08T02:30:30;10.80;99.90
26051;DHT22;13825;53.496;10.020;2023-10-08T02:32:57;10.80;99.90
26051;DHT22;13825;53.496;10.020;2023-10-08T02:35:25;10.80;99.90
26051;DHT22;13825;53.496;10.020;2023-10-08T02:37:52;10.70;99.90
26051;DHT22;13825;53.496;10.020;2023-10-08T02:40:21;10.80;99.90
26051;DHT22;13825;53.496;10.020;2023-10-08T02:42:54;10.80;99.90
26051;DHT22;13825;53.496;10.020;2023-10-08T02:45:26;10.90;99.90
26051;DHT22;13825;53.496;10.020;2023-10-08T02:47:53;10.90;99.90
26051;DHT22;13825;53.496;10.020;2023-10-08T02:50:21;10.80;99.90
26051;DHT22;13825;53.496;10.020;2023-10-08T02:52:51;10.80;99.90
26051;DHT22;13825;53.496;10.020;2023-10-08T02:55:19;10.80;99.90
26051;DHT22;13825;53.496;10.020;2023-10-08T02:57:59;10.80;99.90
26051;DHT22;13825;53.496;10.020;2023-10-08T03:00:29;10.80;99.90
26051;DHT22;13825;53.496;10.020;2023-10-08T03:03:00;10.80;99.90
26051;DHT22;13825;53.496;10.020;2023-10-08T03:05:35;10.80;99.90
26051;DHT22;13825;53.496;10.020;2023-10-08T03:08:03;10.80;99.90
26051;DHT22;13825;53.496;10.020;2023-10-08T03:10:37;10.80;99.90
26051;DHT22;13825;53.496;10.020;2023-10-08T03:13:05;10.80;99.90
26051;DHT22;13825;53.496;10.020;2023-10-08T03:15:37;10.80;99.90
26051;DHT22;13825;53.496;10.020;2023-10-08T03:18:12;10.80;99.90
26051;DHT22;13825;53.496;10.020;2023-10-08T03:20:40;10.80;99.90
26051;DHT22;13825;53.496;10.020;2023-10-08T03:23:12;10.70;99.90
26051;DHT22;13825;53.496;10.020;2023-10-08T03:25:51;10.70;99.90
26051;DHT22;13825;53.496;10.020;2023-10-08T03:28:24;10.70;99.90
26051;DHT22;13825;53.496;10.020;2023-10-08T03:30:54;10.80;99.90
26051;DHT22;13825;53.496;10.020;2023-10-08T03:33:30;10.70;99.90
26051;DHT22;13825;53.496;10.020;2023-10-08T03:36:00;10.70;99.90
26051;DHT22;13825;53.496;10.020;2023-10-08T03:38:36;10.70;99.90
26051;DHT22;13825;53.496;10.020;2023-10-08T03:41:16;10.70;99.90
26051;DHT22;13825;53.496;10.020;2023-10-08T03:43:43;10.70;99.90
26051;DHT22;13825;53.496;10.020;2023-10-08T03:46:20;10.60;99.90
26051;DHT22;13825;53.496;10.020;2023-10-08T03:48:49;10.60;99.90
26051;DHT22;13825;53.496;10.020;2023-10-08T03:51:19;10.60;99.90
26051;DHT22;13825;53.496;10.020;2023-10-08T03:53:47;10.60;99.90
26051;DHT22;13825;53.496;10.020;2023-10-08T03:56:41;10.60;99.90
26051;DHT22;13825;53.496;10.020;2023-10-08T03:59:11;10.60;99.90
26051;DHT22;13825;53.496;10.020;2023-10-08T04:01:41;10.60;99.90
26051;DHT22;13825;53.496;10.020;2023-10-08T04:04:09;10.60;99.90
26051;DHT22;13825;53.496;10.020;2023-10-08T04:06:40;10.60;99.90
26051;DHT22;13825;53.496;10.020;2023-10-08T04:09:14;10.60;99.90
26051;DHT22;13825;53.496;10.020;2023-10-08T04:11:50;10.60;99.90
26051;DHT22;13825;53.496;10.020;2023-10-08T04:14:29;10.70;99.90
26051;DHT22;13825;53.496;10.020;2023-10-08T04:16:58;10.70;99.90
26051;DHT22;13825;53.496;10.020;2023-10-08T04:19:25;10.60;99.90
26051;DHT22;13825;53.496;10.020;2023-10-08T04:21:53;10.60;99.90
26051;DHT22;13825;53.496;10.020;2023-10-08T04:54:53;10.30;99.90
26051;DHT22;13825;53.496;10.020;2023-10-08T04:57:25;10.30;99.90
26051;DHT22;13825;53.496;10.020;2023-10-08T04:59:55;10.30;99.90
26051;DHT22;13825;53.496;10.020;2023-10-08T05:02:42;10.30;99.90
26051;DHT22;13825;53.496;10.020;2023-10-08T05:05:18;10.30;99.90
26051;DHT22;13825;53.496;10.020;2023-10-08T05:08:04;10.40;99.90
26051;DHT22;13825;53.496;10.020;2023-10-08T05:10:55;10.50;99.90
26051;DHT22;13825;53.496;10.020;2023-10-08T05:13:53;10.50;99.90
26051;DHT22;13825;53.496;10.020;2023-10-08T05:16:31;10.40;99.90
26051;DHT22;13825;53.496;10.020;2023-10-08T05:19:46;10.50;99.90
26051;DHT22;13825;53.496;10.020;2023-10-08T05:22:35;10.40;99.90
26051;DHT22;13825;53.496;10.020;2023-10-08T05:25:19;10.40;99.90
26051;DHT22;13825;53.496;10.020;2023-10-08T05:28:02;10.40;99.90
26051;DHT22;13825;53.496;10.020;2023-10-08T05:30:36;10.30;99.90
26051;DHT22;13825;53.496;10.020;2023-10-08T05:33:16;10.30;99.90
26051;DHT22;13825;53.496;10.020;2023-10-08T05:36:22;10.20;99.90
26051;DHT22;13825;53.496;10.020;2023-10-08T05:38:53;10.10;99.90
26051;DHT22;13825;53.496;10.020;2023-10-08T05:41:32;10.10;99.90
26051;DHT22;13825;53.496;10.020;2023-10-08T05:44:07;10.10;99.90
26051;DHT22;13825;53.496;10.020;2023-10-08T05:47:04;10.10;99.90
26051;DHT22;13825;53.496;10.020;2023-10-08T05:49:50;10.10;99.90
26051;DHT22;13825;53.496;10.020;2023-10-08T05:52:54;10.10;99.90
26051;DHT22;13825;53.496;10.020;2023-10-08T05:56:04;10.10;99.90
26051;DHT22;13825;53.496;10.020;2023-10-08T05:58:42;10.00;99.90
26051;DHT22;13825;53.496;10.020;2023-10-08T06:01:27;10.00;99.90
26051;DHT22;13825;53.496;10.020;2023-10-08T06:04:27;9.90;99.90
26051;DHT22;13825;53.496;10.020;2023-10-08T06:07:28;9.80;99.90
26051;DHT22;13825;53.496;10.020;2023-10-08T06:10:13;9.70;99.90
26051;DHT22;13825;53.496;10.020;2023-10-08T06:13:02;9.70;99.90
26051;DHT22;13825;53.496;10.020;2023-10-08T06:15:35;9.80;99.90
26051;DHT22;13825;53.496;10.020;2023-10-08T06:18:15;9.90;99.90
26051;DHT22;13825;53.496;10.020;2023-10-08T06:20:41;10.00;99.90
26051;DHT22;13825;53.496;10.020;2023-10-08T06:23:28;9.90;99.90
26051;DHT22;13825;53.496;10.020;2023-10-08T06:25:57;10.00;99.90
26051;DHT22;13825;53.496;10.020;2023-10-08T06:28:32;10.10;99.90
26051;DHT22;13825;53.496;10.020;2023-10-08T06:31:01;10.10;99.90
26051;DHT22;13825;53.496;10.020;2023-10-08T06:33:34;10.10;99.90
26051;DHT22;13825;53.496;10.020;2023-10-08T06:36:01;10.00;99.90
26051;DHT22;13825;53.496;10.020;2023-10-08T06:38:40;10.10;99.90
26051;DHT22;13825;53.496;10.020;2023-10-08T06:41:17;10.10;99.90
26051;DHT22;13825;53.496;10.020;2023-10-08T06:43:45;10.10;99.90
26051;DHT22;13825;53.496;10.020;2023-10-08T06:46:49;10.10;99.90
26051;DHT22;13825;53.496;10.020;2023-10-08T06:49:25;10.10;99.90
26051;DHT22;13825;53.496;10.020;2023-10-08T06:51:54;10.20;99.90
26051;DHT22;13825;53.496;10.020;2023-10-08T06:54:21;10.30;99.90
26051;DHT22;13825;53.496;10.020;2023-10-08T06:56:48;10.30;99.90
26051;DHT22;13825;53.496;10.020;2023-10-08T06:59:24;10.40;99.90
26051;DHT22;13825;53.496;10.020;2023-10-08T07:01:57;10.50;99.90
26051;DHT22;13825;53.496;10.020;2023-10-08T07:04:38;10.50;99.90
26051;DHT22;13825;53.496;10.020;2023-10-08T07:07:17;10.60;99.90
26051;DHT22;13825;53.496;10.020;2023-10-08T07:09:44;10.70;99.90
26051;DHT22;13825;53.496;10.020;2023-10-08T07:12:26;10.70;99.90
26051;DHT22;13825;53.496;10.020;2023-10-08T07:14:54;10.80;99.90
26051;DHT22;13825;53.496;10.020;2023-10-08T07:17:40;10.90;99.90
26051;DHT22;13825;53.496;10.020;2023-10-08T07:20:10;11.00;99.90
26051;DHT22;13825;53.496;10.020;2023-10-08T07:22:47;11.10;99.90
26051;DHT22;13825;53.496;10.020;2023-10-08T07:25:28;11.10;99.90
26051;DHT22;13825;53.496;10.020;2023-10-08T07:28:02;11.10;99.90
26051;DHT22;13825;53.496;10.020;2023-10-08T07:30:38;11.20;99.90
26051;DHT22;13825;53.496;10.020;2023-10-08T07:33:12;11.30;1.00
26051;DHT22;13825;53.496;10.020;2023-10-08T07:35:46;11.40;1.00
26051;DHT22;13825;53.496;10.020;2023-10-08T07:38:42;11.40;99.90
26051;DHT22;13825;53.496;10.020;2023-10-08T07:41:15;11.50;99.90
26051;DHT22;13825;53.496;10.020;2023-10-08T07:43:42;11.60;1.00
26051;DHT22;13825;53.496;10.020;2023-10-08T07:46:12;11.60;1.00
26051;DHT22;13825;53.496;10.020;2023-10-08T07:48:40;11.70;1.00
26051;DHT22;13825;53.496;10.020;2023-10-08T07:51:28;11.70;1.00
26051;DHT22;13825;53.496;10.020;2023-10-08T07:53:55;11.80;1.00
26051;DHT22;13825;53.496;10.020;2023-10-08T07:56:41;11.80;1.00
26051;DHT22;13825;53.496;10.020;2023-10-08T07:59:14;12.00;1.00
26051;DHT22;13825;53.496;10.020;2023-10-08T08:01:42;12.10;1.00
26051;DHT22;13825;53.496;10.020;2023-10-08T08:04:15;12.10;99.90
26051;DHT22;13825;53.496;10.020;2023-10-08T08:06:50;12.20;1.00
26051;DHT22;13825;53.496;10.020;2023-10-08T08:09:28;12.30;99.90
26051;DHT22;13825;53.496;10.020;2023-10-08T08:11:55;12.30;99.90
26051;DHT22;13825;53.496;10.020;2023-10-08T08:14:23;12.30;99.90
26051;DHT22;13825;53.496;10.020;2023-10-08T08:16:51;12.50;99.90
26051;DHT22;13825;53.496;10.020;2023-10-08T08:19:27;12.50;99.90
26051;DHT22;13825;53.496;10.020;2023-10-08T08:21:58;12.50;99.90
26051;DHT22;13825;53.496;10.020;2023-10-08T08:24:28;12.60;99.90
26051;DHT22;13825;53.496;10.020;2023-10-08T08:26:57;12.60;20.70
26051;DHT22;13825;53.496;10.020;2023-10-08T08:29:34;12.70;99.90
26051;DHT22;13825;53.496;10.020;2023-10-08T08:32:12;12.90;99.90
26051;DHT22;13825;53.496;10.020;2023-10-08T08:34:41;12.80;1.00
26051;DHT22;13825;53.496;10.020;2023-10-08T08:37:29;12.80;1.00
26051;DHT22;13825;53.496;10.020;2023-10-08T08:39:57;12.70;15.70
26051;DHT22;13825;53.496;10.020;2023-10-08T08:42:24;12.70;1.00
26051;DHT22;13825;53.496;10.020;2023-10-08T08:44:55;12.80;1.00
26051;DHT22;13825;53.496;10.020;2023-10-08T08:47:44;12.80;1.00
26051;DHT22;13825;53.496;10.020;2023-10-08T08:53:33;13.00;20.50
26051;DHT22;13825;53.496;10.020;2023-10-08T08:56:16;13.20;99.90
26051;DHT22;13825;53.496;10.020;2023-10-08T08:58:46;13.20;1.00
26051;DHT22;13825;53.496;10.020;2023-10-08T09:01:17;13.30;1.00
26051;DHT22;13825;53.496;10.020;2023-10-08T09:03:45;13.50;1.00
26051;DHT22;13825;53.496;10.020;2023-10-08T09:06:14;13.70;1.00
26051;DHT22;13825;53.496;10.020;2023-10-08T09:08:42;13.80;32.50
26051;DHT22;13825;53.496;10.020;2023-10-08T09:11:42;13.70;1.00
26051;DHT22;13825;53.496;10.020;2023-10-08T09:14:37;13.60;99.90
26051;DHT22;13825;53.496;10.020;2023-10-08T09:17:20;13.80;99.90
26051;DHT22;13825;53.496;10.020;2023-10-08T09:19:53;13.70;99.90
26051;DHT22;13825;53.496;10.020;2023-10-08T09:22:39;13.90;1.00
26051;DHT22;13825;53.496;10.020;2023-10-08T09:30:58;14.40;1.00
26051;DHT22;13825;53.496;10.020;2023-10-08T09:33:28;14.40;99.90
26051;DHT22;13825;53.496;10.020;2023-10-08T09:35:55;14.40;1.00
26051;DHT22;13825;53.496;10.020;2023-10-08T09:38:28;14.40;1.00
26051;DHT22;13825;53.496;10.020;2023-10-08T09:40:56;14.40;1.00
26051;DHT22;13825;53.496;10.020;2023-10-08T09:43:23;14.50;1.00
26051;DHT22;13825;53.496;10.020;2023-10-08T09:45:55;14.40;99.90
26051;DHT22;13825;53.496;10.020;2023-10-08T09:48:25;14.50;99.90
26051;DHT22;13825;53.496;10.020;2023-10-08T09:50:54;14.70;99.90
26051;DHT22;13825;53.496;10.020;2023-10-08T09:53:28;14.80;1.00
26051;DHT22;13825;53.496;10.020;2023-10-08T09:55:58;15.10;1.00
26051;DHT22;13825;53.496;10.020;2023-10-08T09:58:27;15.00;1.00
26051;DHT22;13825;53.496;10.020;2023-10-08T10:00:57;15.00;99.90
26051;DHT22;13825;53.496;10.020;2023-10-08T10:03:25;14.90;99.90
26051;DHT22;13825;53.496;10.020;2023-10-08T10:05:52;15.20;99.90
26051;DHT22;13825;53.496;10.020;2023-10-08T10:08:24;15.00;99.90
26051;DHT22;13825;53.496;10.020;2023-10-08T10:10:58;15.20;1.00
26051;DHT22;13825;53.496;10.020;2023-10-08T10:13:28;15.50;1.00
26051;DHT22;13825;53.496;10.020;2023-10-08T10:15:57;15.60;1.00
26051;DHT22;13825;53.496;10.020;2023-10-08T10:18:28;15.70;1.00
26051;DHT22;13825;53.496;10.020;2023-10-08T10:20:58;15.90;1.00
26051;DHT22;13825;53.496;10.020;2023-10-08T10:23:37;16.10;1.00
26051;DHT22;13825;53.496;10.020;2023-10-08T10:26:20;16.50;99.90
26051;DHT22;13825;53.496;10.020;2023-10-08T10:29:22;16.50;1.00
26051;DHT22;13825;53.496;10.020;2023-10-08T10:31:54;17.00;99.90
26051;DHT22;13825;53.496;10.020;2023-10-08T10:34:23;17.30;55.00
26051;DHT22;13825;53.496;10.020;2023-10-08T10:36:54;17.10;99.90
26051;DHT22;13825;53.496;10.020;2023-10-08T10:39:34;17.10;99.90
26051;DHT22;13825;53.496;10.020;2023-10-08T10:42:06;16.90;1.00
26051;DHT22;13825;53.496;10.020;2023-10-08T10:44:46;16.30;1.00
26051;DHT22;13825;53.496;10.020;2023-10-08T10:47:17;16.50;1.00
26051;DHT22;13825;53.496;10.020;2023-10-08T10:49:54;17.10;1.00
26051;DHT22;13825;53.496;10.020;2023-10-08T10:52:41;17.30;1.00
26051;DHT22;13825;53.496;10.020;2023-10-08T10:55:12;17.70;1.00
26051;DHT22;13825;53.496;10.020;2023-10-08T10:57:50;17.70;1.00
26051;DHT22;13825;53.496;10.020;2023-10-08T11:00:31;17.80;1.00
26051;DHT22;13825;53.496;10.020;2023-10-08T11:03:24;17.70;1.00
26051;DHT22;13825;53.496;10.020;2023-10-08T11:05:57;17.90;99.90
26051;DHT22;13825;53.496;10.020;2023-10-08T11:08:32;17.60;99.90
26051;DHT22;13825;53.496;10.020;2023-10-08T11:11:01;17.40;99.90
26051;DHT22;13825;53.496;10.020;2023-10-08T11:13:33;17.50;1.00
26051;DHT22;13825;53.496;10.020;2023-10-08T11:16:04;17.90;61.90
26051;DHT22;13825;53.496;10.020;2023-10-08T11:18:43;18.20;99.90
26051;DHT22;13825;53.496;10.020;2023-10-08T11:21:10;17.90;99.90
26051;DHT22;13825;53.496;10.020;2023-10-08T11:23:49;17.60;99.90
26051;DHT22;13825;53.496;10.020;2023-10-08T11:26:25;17.60;1.00
26051;DHT22;13825;53.496;10.020;2023-10-08T11:29:05;17.50;1.00
26051;DHT22;13825;53.496;10.020;2023-10-08T11:31:40;17.40;1.00
26051;DHT22;13825;53.496;10.020;2023-10-08T11:34:11;17.60;1.00
26051;DHT22;13825;53.496;10.020;2023-10-08T11:36:39;17.80;1.00
26051;DHT22;13825;53.496;10.020;2023-10-08T11:39:18;17.70;99.90
26051;DHT22;13825;53.496;10.020;2023-10-08T11:41:57;18.20;99.90
26051;DHT22;13825;53.496;10.020;2023-10-08T11:44:37;18.30;1.00
26051;DHT22;13825;53.496;10.020;2023-10-08T11:47:20;18.30;1.00
26051;DHT22;13825;53.496;10.020;2023-10-08T11:49:49;18.40;99.90
26051;DHT22;13825;53.496;10.020;2023-10-08T11:52:25;18.20;99.90
26051;DHT22;13825;53.496;10.020;2023-10-08T11:55:02;18.10;99.90
26051;DHT22;13825;53.496;10.020;2023-10-08T11:57:31;17.70;99.90
26051;DHT22;13825;53.496;10.020;2023-10-08T12:00:01;17.60;69.40
26051;DHT22;13825;53.496;10.020;2023-10-08T12:02:44;17.80;99.90
26051;DHT22;13825;53.496;10.020;2023-10-08T12:05:13;18.20;99.90
26051;DHT22;13825;53.496;10.020;2023-10-08T12:07:46;18.20;1.00
26051;DHT22;13825;53.496;10.020;2023-10-08T12:10:13;18.80;99.90
26051;DHT22;13825;53.496;10.020;2023-10-08T12:12:42;19.30;99.90
26051;DHT22;13825;53.496;10.020;2023-10-08T12:15:11;19.40;1.00
26051;DHT22;13825;53.496;10.020;2023-10-08T12:17:46;19.20;1.00
26051;DHT22;13825;53.496;10.020;2023-10-08T12:20:35;19.00;1.00
26051;DHT22;13825;53.496;10.020;2023-10-08T12:23:04;19.20;8.10
26051;DHT22;13825;53.496;10.020;2023-10-08T12:25:31;19.00;99.90
26051;DHT22;13825;53.496;10.020;2023-10-08T12:28:00;18.70;7.90
26051;DHT22;13825;53.496;10.020;2023-10-08T12:30:30;18.30;1.00
26051;DHT22;13825;53.496;10.020;2023-10-08T12:32:58;18.10;1.00
26051;DHT22;13825;53.496;10.020;2023-10-08T12:35:26;17.80;16.90
26051;DHT22;13825;53.496;10.020;2023-10-08T12:37:56;17.70;1.00
26051;DHT22;13825;53.496;10.020;2023-10-08T12:40:23;17.40;99.90
26051;DHT22;13825;53.496;10.020;2023-10-08T12:42:57;16.70;1.00
26051;DHT22;13825;53.496;10.020;2023-10-08T12:45:25;16.70;1.00
26051;DHT22;13825;53.496;10.020;2023-10-08T12:47:53;16.90;1.00
26051;DHT22;13825;53.496;10.020;2023-10-08T12:50:20;16.80;1.00
26051;DHT22;13825;53.496;10.020;2023-10-08T12:52:56;16.80;1.00
26051;DHT22;13825;53.496;10.020;2023-10-08T12:55:23;16.60;1.00
26051;DHT22;13825;53.496;10.020;2023-10-08T12:57:51;16.60;99.90
26051;DHT22;13825;53.496;10.020;2023-10-08T13:00:22;16.50;99.90
26051;DHT22;13825;53.496;10.020;2023-10-08T13:02:52;16.50;1.00
26051;DHT22;13825;53.496;10.020;2023-10-08T13:05:23;16.50;1.00
26051;DHT22;13825;53.496;10.020;2023-10-08T13:07:58;16.10;1.00
26051;DHT22;13825;53.496;10.020;2023-10-08T13:10:29;16.10;1.00
26051;DHT22;13825;53.496;10.020;2023-10-08T13:12:56;15.90;1.00
26051;DHT22;13825;53.496;10.020;2023-10-08T13:15:23;15.90;1.00
26051;DHT22;13825;53.496;10.020;2023-10-08T13:17:51;16.00;1.00
26051;DHT22;13825;53.496;10.020;2023-10-08T13:20:19;16.00;1.00
26051;DHT22;13825;53.496;10.020;2023-10-08T13:22:46;16.10;1.00
26051;DHT22;13825;53.496;10.020;2023-10-08T13:25:15;16.10;1.00
26051;DHT22;13825;53.496;10.020;2023-10-08T13:27:42;16.30;1.00
26051;DHT22;13825;53.496;10.020;2023-10-08T13:30:10;16.50;1.00
26051;DHT22;13825;53.496;10.020;2023-10-08T13:32:37;16.40;1.00
26051;DHT22;13825;53.496;10.020;2023-10-08T13:35:05;16.40;1.00
26051;DHT22;13825;53.496;10.020;2023-10-08T13:37:33;16.30;1.00
26051;DHT22;13825;53.496;10.020;2023-10-08T13:40:01;16.20;1.00
26051;DHT22;13825;53.496;10.020;2023-10-08T13:42:29;16.10;2.40
26051;DHT22;13825;53.496;10.020;2023-10-08T13:44:57;16.00;1.00
26051;DHT22;13825;53.496;10.020;2023-10-08T13:47:25;16.00;1.00
26051;DHT22;13825;53.496;10.020;2023-10-08T13:49:54;15.90;1.00
26051;DHT22;13825;53.496;10.020;2023-10-08T13:52:23;15.90;17.50
26051;DHT22;13825;53.496;10.020;2023-10-08T13:54:52;15.80;1.00
26051;DHT22;13825;53.496;10.020;2023-10-08T13:57:19;15.80;99.90
26051;DHT22;13825;53.496;10.020;2023-10-08T13:59:48;16.00;99.90
26051;DHT22;13825;53.496;10.020;2023-10-08T14:02:16;16.10;99.90
26051;DHT22;13825;53.496;10.020;2023-10-08T14:04:47;16.20;99.90
26051;DHT22;13825;53.496;10.020;2023-10-08T14:07:16;16.20;99.90
26051;DHT22;13825;53.496;10.020;2023-10-08T14:09:44;16.20;99.90
26051;DHT22;13825;53.496;10.020;2023-10-08T14:12:12;16.10;99.90
26051;DHT22;13825;53.496;10.020;2023-10-08T14:14:40;16.00;99.90
26051;DHT22;13825;53.496;10.020;2023-10-08T14:17:10;15.70;99.90
26051;DHT22;13825;53.496;10.020;2023-10-08T14:19:41;15.60;99.90
26051;DHT22;13825;53.496;10.020;2023-10-08T14:22:12;15.20;99.90
26051;DHT22;13825;53.496;10.020;2023-10-08T14:24:40;15.30;1.00
26051;DHT22;13825;53.496;10.020;2023-10-08T14:27:10;15.40;99.90
26051;DHT22;13825;53.496;10.020;2023-10-08T14:29:37;15.20;99.90
26051;DHT22;13825;53.496;10.020;2023-10-08T14:32:06;15.20;99.90
26051;DHT22;13825;53.496;10.020;2023-10-08T14:34:37;15.30;99.90
26051;DHT22;13825;53.496;10.020;2023-10-08T14:37:21;15.30;99.90
26051;DHT22;13825;53.496;10.020;2023-10-08T14:40:06;15.30;99.90
26051;DHT22;13825;53.496;10.020;2023-10-08T14:42:51;15.00;99.90
26051;DHT22;13825;53.496;10.020;2023-10-08T14:45:22;15.10;99.90
26051;DHT22;13825;53.496;10.020;2023-10-08T14:47:53;15.00;99.90
26051;DHT22;13825;53.496;10.020;2023-10-08T14:50:22;15.00;99.90
26051;DHT22;13825;53.496;10.020;2023-10-08T14:52:53;14.90;99.90
26051;DHT22;13825;53.496;10.020;2023-10-08T14:55:20;15.00;99.90
26051;DHT22;13825;53.496;10.020;2023-10-08T14:57:49;15.00;99.90
26051;DHT22;13825;53.496;10.020;2023-10-08T15:00:18;14.90;99.90
26051;DHT22;13825;53.496;10.020;2023-10-08T15:02:50;14.80;99.90
26051;DHT22;13825;53.496;10.020;2023-10-08T15:05:18;14.80;99.90
26051;DHT22;13825;53.496;10.020;2023-10-08T15:07:48;14.80;99.90
26051;DHT22;13825;53.496;10.020;2023-10-08T15:10:16;14.70;99.90
26051;DHT22;13825;53.496;10.020;2023-10-08T15:12:43;14.60;99.90
26051;DHT22;13825;53.496;10.020;2023-10-08T15:15:10;14.50;99.90
26051;DHT22;13825;53.496;10.020;2023-10-08T15:17:40;14.40;99.90
26051;DHT22;13825;53.496;10.020;2023-10-08T15:20:08;14.40;99.90
26051;DHT22;13825;53.496;10.020;2023-10-08T15:22:40;14.40;99.90
26051;DHT22;13825;53.496;10.020;2023-10-08T15:25:10;14.40;99.90
26051;DHT22;13825;53.496;10.020;2023-10-08T15:27:37;14.40;99.90
26051;DHT22;13825;53.496;10.020;2023-10-08T15:30:42;14.30;99.90
26051;DHT22;13825;53.496;10.020;2023-10-08T15:33:23;14.20;99.90
26051;DHT22;13825;53.496;10.020;2023-10-08T15:35:53;14.30;99.90
26051;DHT22;13825;53.496;10.020;2023-10-08T15:38:27;14.20;1.00
26051;DHT22;13825;53.496;10.020;2023-10-08T15:40:57;14.20;56.20
26051;DHT22;13825;53.496;10.020;2023-10-08T15:43:25;14.20;99.90
26051;DHT22;13825;53.496;10.020;2023-10-08T15:45:53;14.10;99.90
26051;DHT22;13825;53.496;10.020;2023-10-08T15:48:20;14.10;99.90
26051;DHT22;13825;53.496;10.020;2023-10-08T15:50:47;14.00;99.90
26051;DHT22;13825;53.496;10.020;2023-10-08T15:53:14;13.90;99.90
26051;DHT22;13825;53.496;10.020;2023-10-08T15:55:43;13.90;99.90
26051;DHT22;13825;53.496;10.020;2023-10-08T15:58:11;13.90;1.00
26051;DHT22;13825;53.496;10.020;2023-10-08T16:00:38;13.90;1.00
26051;DHT22;13825;53.496;10.020;2023-10-08T16:03:05;13.90;99.90
26051;DHT22;13825;53.496;10.020;2023-10-08T16:05:33;13.80;99.90
26051;DHT22;13825;53.496;10.020;2023-10-08T16:08:01;13.80;1.00
26051;DHT22;13825;53.496;10.020;2023-10-08T16:10:28;13.70;99.90
26051;DHT22;13825;53.496;10.020;2023-10-08T16:12:55;13.70;1.00
26051;DHT22;13825;53.496;10.020;2023-10-08T16:15:24;13.60;99.90
26051;DHT22;13825;53.496;10.020;2023-10-08T16:17:51;13.50;99.90
26051;DHT22;13825;53.496;10.020;2023-10-08T16:20:18;13.50;99.90
26051;DHT22;13825;53.496;10.020;2023-10-08T16:22:47;13.40;99.90
26051;DHT22;13825;53.496;10.020;2023-10-08T16:25:16;13.20;1.00
26051;DHT22;13825;53.496;10.020;2023-10-08T16:27:44;13.20;53.30
26051;DHT22;13825;53.496;10.020;2023-10-08T16:30:16;13.30;1.00
26051;DHT22;13825;53.496;10.020;2023-10-08T16:32:44;13.20;1.00
26051;DHT22;13825;53.496;10.020;2023-10-08T16:35:11;13.20;99.90
26051;DHT22;13825;53.496;10.020;2023-10-08T16:37:38;13.10;1.00